createdAt,value
2022-11-18T00:00:27.307Z,76.62
2022-11-18T00:02:54.275Z,76.19
2022-11-18T00:05:20.996Z,76.46
2022-11-18T00:07:47.674Z,79.13
2022-11-18T00:10:14.439Z,78.78
2022-11-18T00:12:59.803Z,78.16
2022-11-18T00:15:31.562Z,76.92
2022-11-18T00:17:58.592Z,76.61
2022-11-18T00:20:25.257Z,76.42
2022-11-18T00:22:51.983Z,76.03
2022-11-18T00:25:18.775Z,76.38
2022-11-18T00:27:45.506Z,76.17
2022-11-18T00:30:12.197Z,75.83
2022-11-18T00:32:38.869Z,75.69
2022-11-18T00:35:05.940Z,75.67
2022-11-18T00:37:32.644Z,75.73
2022-11-18T00:39:59.389Z,75.60
2022-11-18T00:42:44.707Z,75.76
2022-11-18T00:45:11.491Z,74.75
2022-11-18T00:47:38.229Z,74.66
2022-11-18T00:50:05.127Z,74.61
2022-11-18T00:52:31.878Z,74.32
2022-11-18T00:54:58.834Z,74.10
2022-11-18T00:57:25.595Z,74.21
2022-11-18T00:59:52.427Z,73.54
2022-11-18T01:02:19.168Z,73.36
2022-11-18T01:04:45.863Z,73.48
2022-11-18T01:07:12.674Z,73.05
2022-11-18T01:09:39.352Z,73.21
2022-11-18T01:12:24.894Z,74.92
2022-11-18T01:14:51.601Z,73.74
2022-11-18T01:17:18.556Z,73.51
2022-11-18T01:19:45.361Z,73.29
2022-11-18T01:22:12.041Z,72.80
2022-11-18T01:24:38.814Z,73.38
2022-11-18T01:27:05.537Z,73.60
2022-11-18T01:29:32.275Z,73.55
2022-11-18T01:32:23.476Z,75.72
2022-11-18T01:34:45.876Z,73.26
2022-11-18T01:37:12.838Z,74.56
2022-11-18T01:39:39.601Z,75.38
2022-11-18T01:42:12.047Z,75.15
2022-11-18T01:44:56.910Z,75.27
2022-11-18T01:47:24.134Z,77.44
2022-11-18T01:49:51.124Z,75.59
2022-11-18T01:52:17.964Z,74.85
2022-11-18T01:54:48.113Z,75.04
2022-11-18T01:57:17.772Z,75.12
2022-11-18T01:59:46.629Z,76.26
2022-11-18T02:02:15.008Z,77.44
2022-11-18T02:04:43.988Z,76.54
2022-11-18T02:07:11.793Z,77.25
2022-11-18T02:09:38.643Z,76.71
2022-11-18T02:12:05.589Z,75.88
2022-11-18T02:14:34.485Z,75.89
2022-11-18T02:17:01.194Z,75.91
2022-11-18T02:19:49.528Z,76.18
2022-11-18T02:22:25.114Z,75.04
2022-11-18T02:24:59.759Z,76.64
2022-11-18T02:27:41.884Z,75.84
2022-11-18T02:30:09.903Z,75.62
2022-11-18T02:32:36.639Z,75.37
2022-11-18T02:35:08.090Z,75.36
2022-11-18T02:37:37.030Z,76.06
2022-11-18T02:40:30.168Z,75.67
2022-11-18T02:43:06.600Z,75.36
2022-11-18T02:45:33.874Z,74.87
2022-11-18T02:48:04.254Z,74.64
2022-11-18T02:50:33.692Z,74.52
2022-11-18T02:53:01.707Z,74.54
2022-11-18T02:55:31.098Z,74.53
2022-11-18T02:57:58.592Z,74.26
2022-11-18T03:00:25.334Z,73.61
2022-11-18T03:02:52.129Z,74.41
2022-11-18T03:05:37.710Z,74.67
2022-11-18T03:08:09.799Z,75.03
2022-11-18T03:10:42.596Z,77.07
2022-11-18T03:13:15.115Z,75.13
2022-11-18T03:15:48.692Z,79.60
2022-11-18T03:18:24.495Z,78.29
2022-11-18T03:20:53.598Z,78.80
2022-11-18T03:23:25.568Z,78.64
2022-11-18T03:25:57.835Z,80.66
2022-11-18T03:28:30.446Z,80.08
2022-11-18T03:31:01.800Z,79.16
2022-11-18T03:33:38.138Z,84.60
2022-11-18T03:36:07.067Z,86.67
2022-11-18T03:38:36.762Z,84.63
2022-11-18T03:41:05.653Z,86.62
2022-11-18T03:43:34.936Z,83.45
2022-11-18T03:46:04.538Z,83.03
2022-11-18T03:48:34.527Z,83.87
2022-11-18T03:51:02.876Z,84.10
2022-11-18T03:53:32.135Z,87.22
2022-11-18T03:56:25.212Z,84.60
2022-11-18T03:58:54.959Z,86.58
2022-11-18T04:01:25.488Z,88.69
2022-11-18T04:03:52.239Z,86.51
2022-11-18T04:06:26.809Z,89.40
2022-11-18T04:08:56.148Z,90.22
2022-11-18T04:11:54.445Z,89.68
2022-11-18T04:14:21.211Z,86.58
2022-11-18T04:16:50.761Z,88.76
2022-11-18T04:19:17.500Z,85.21
2022-11-18T04:21:44.238Z,84.28
2022-11-18T04:24:10.962Z,88.65
2022-11-18T04:26:37.646Z,91.05
2022-11-18T04:29:04.295Z,90.51
2022-11-18T04:31:31.038Z,90.90
2022-11-18T04:33:57.767Z,88.13
2022-11-18T04:36:24.455Z,89.37
2022-11-18T04:38:51.166Z,88.82
2022-11-18T04:41:17.885Z,85.88
2022-11-18T04:43:44.636Z,87.80
2022-11-18T04:46:11.357Z,91.41
2022-11-18T04:48:38.061Z,87.98
2022-11-18T04:51:05.224Z,86.57
2022-11-18T04:53:31.960Z,86.86
2022-11-18T04:56:04.799Z,84.72
2022-11-18T04:58:31.681Z,86.44
2022-11-18T05:00:58.491Z,87.12
2022-11-18T05:03:25.253Z,87.21
2022-11-18T05:05:52.043Z,87.86
2022-11-18T05:08:18.772Z,84.41
2022-11-18T05:10:45.450Z,86.98
2022-11-18T05:13:13.283Z,90.48
2022-11-18T05:15:40.060Z,88.29
2022-11-18T05:18:06.761Z,93.54
2022-11-18T05:20:36.183Z,88.88
2022-11-18T05:23:07.066Z,89.08
2022-11-18T05:25:35.915Z,89.41
2022-11-18T05:28:03.343Z,87.00
2022-11-18T05:30:30.055Z,88.79
2022-11-18T05:32:56.762Z,89.51
2022-11-18T05:35:23.536Z,88.00
2022-11-18T05:37:50.806Z,95.92
2022-11-18T05:40:17.766Z,95.09
2022-11-18T05:43:02.941Z,96.41
2022-11-18T05:45:29.640Z,95.26
2022-11-18T05:48:04.567Z,93.77
2022-11-18T05:50:32.436Z,92.72
2022-11-18T05:52:59.471Z,93.98
2022-11-18T05:55:29.382Z,89.11
2022-11-18T05:57:56.077Z,88.13
2022-11-18T06:00:23.046Z,86.35
2022-11-18T06:02:51.517Z,86.58
2022-11-18T06:05:19.203Z,85.16
2022-11-18T06:07:46.416Z,84.45
2022-11-18T06:10:16.581Z,82.87
2022-11-18T06:12:45.384Z,82.27
2022-11-18T06:15:23.168Z,84.85
2022-11-18T06:17:59.006Z,83.88
2022-11-18T06:20:26.973Z,84.14
2022-11-18T06:22:54.926Z,86.07
2022-11-18T06:25:21.942Z,87.71
2022-11-18T06:27:50.160Z,86.60
2022-11-18T06:30:17.138Z,86.87
2022-11-18T06:32:46.642Z,86.06
2022-11-18T06:35:13.342Z,88.75
2022-11-18T06:37:40.506Z,85.92
2022-11-18T06:40:10.187Z,86.59
2022-11-18T06:42:56.116Z,85.18
2022-11-18T06:45:23.243Z,86.83
2022-11-18T06:47:50.121Z,83.96
2022-11-18T06:50:17.196Z,84.62
2022-11-18T06:52:44.762Z,84.39
2022-11-18T06:55:11.766Z,83.27
2022-11-18T06:57:39.874Z,84.02
2022-11-18T07:00:07.461Z,84.38
2022-11-18T07:02:38.681Z,82.46
2022-11-18T07:05:06.674Z,81.83
2022-11-18T07:07:40.505Z,83.54
2022-11-18T07:10:09.303Z,84.23
2022-11-18T07:12:36.078Z,81.63
2022-11-18T07:15:02.888Z,81.87
2022-11-18T07:17:32.846Z,81.51
2022-11-18T07:20:01.187Z,81.35
2022-11-18T07:22:31.405Z,80.77
2022-11-18T07:25:00.643Z,81.43
2022-11-18T07:27:27.479Z,80.65
2022-11-18T07:29:54.515Z,82.73
2022-11-18T07:32:21.425Z,81.13
2022-11-18T07:34:49.473Z,80.22
2022-11-18T07:37:16.324Z,79.56
2022-11-18T07:39:43.123Z,78.49
2022-11-18T07:42:10.201Z,78.01
2022-11-18T07:44:37.167Z,78.24
2022-11-18T07:47:03.989Z,78.00
2022-11-18T07:49:30.840Z,79.57
2022-11-18T07:51:57.627Z,77.50
2022-11-18T07:54:24.464Z,78.01
2022-11-18T07:56:53.597Z,81.54
2022-11-18T07:59:24.926Z,79.76
2022-11-18T08:01:54.027Z,83.00
2022-11-18T08:04:23.280Z,81.17
2022-11-18T08:06:50.236Z,82.07
2022-11-18T08:09:17.347Z,80.01
2022-11-18T08:11:44.355Z,81.01
2022-11-18T08:14:11.311Z,80.08
2022-11-18T08:16:38.387Z,79.39
2022-11-18T08:19:05.255Z,80.64
2022-11-18T08:21:33.662Z,80.85
2022-11-18T08:24:02.938Z,82.24
2022-11-18T08:26:29.846Z,81.00
2022-11-18T08:28:57.633Z,80.78
2022-11-18T08:31:27.438Z,81.43
2022-11-18T08:34:18.393Z,84.52
2022-11-18T08:36:46.996Z,81.65
2022-11-18T08:39:16.775Z,81.95
2022-11-18T08:41:46.430Z,83.98
2022-11-18T08:44:14.922Z,83.16
2022-11-18T08:46:45.318Z,84.98
2022-11-18T08:49:12.528Z,83.24
2022-11-18T08:51:42.454Z,85.25
2022-11-18T08:54:15.717Z,86.79
2022-11-18T08:56:49.710Z,85.28
2022-11-18T08:59:17.138Z,86.52
2022-11-18T09:01:46.457Z,85.48
2022-11-18T09:04:13.400Z,86.71
2022-11-18T09:06:40.695Z,86.59
2022-11-18T09:09:12.422Z,83.44
2022-11-18T09:11:44.908Z,82.12
2022-11-18T09:17:03.734Z,81.62
2022-11-18T09:19:47.624Z,80.17
2022-11-18T09:22:15.072Z,79.41
2022-11-18T09:24:51.362Z,79.27
2022-11-18T09:27:28.009Z,79.46
2022-11-18T09:29:54.877Z,79.02
2022-11-18T09:32:21.702Z,79.21
2022-11-18T09:34:50.827Z,79.66
2022-11-18T09:37:17.796Z,79.08
2022-11-18T09:39:44.706Z,78.98
2022-11-18T09:42:32.591Z,77.98
2022-11-18T09:45:14.546Z,78.34
2022-11-18T09:47:44.403Z,78.28
2022-11-18T09:50:41.809Z,79.14
2022-11-18T09:53:13.983Z,77.74
2022-11-18T09:55:44.505Z,79.30
2022-11-18T09:58:32.079Z,79.37
2022-11-18T10:00:59.056Z,78.68
2022-11-18T10:03:38.964Z,77.56
2022-11-18T10:06:29.890Z,81.60
2022-11-18T10:09:21.393Z,79.41
2022-11-18T10:12:08.729Z,81.25
2022-11-18T10:14:53.299Z,80.83
2022-11-18T10:17:23.534Z,80.71
2022-11-18T10:19:57.661Z,80.11
2022-11-18T10:22:31.279Z,81.62
2022-11-18T10:24:58.863Z,81.50
2022-11-18T10:27:37.697Z,81.67
2022-11-18T10:30:15.961Z,81.42
2022-11-18T10:33:03.520Z,80.22
2022-11-18T10:35:34.535Z,80.20
2022-11-18T10:38:08.192Z,79.88
2022-11-18T10:40:40.898Z,82.73
2022-11-18T10:43:10.533Z,82.88
2022-11-18T10:45:37.515Z,83.35
2022-11-18T10:48:18.043Z,82.25
2022-11-18T10:50:55.276Z,81.14
2022-11-18T10:53:49.090Z,82.33
2022-11-18T10:56:20.627Z,81.29
2022-11-18T10:59:01.946Z,83.71
2022-11-18T11:01:36.450Z,83.08
2022-11-18T11:04:23.679Z,85.44
2022-11-18T11:06:51.145Z,84.19
2022-11-18T11:09:59.993Z,84.30
2022-11-18T11:12:30.412Z,85.80
2022-11-18T11:15:01.355Z,86.50
2022-11-18T11:20:49.767Z,85.47
2022-11-18T11:23:23.472Z,84.60
2022-11-18T11:28:53.215Z,84.81
2022-11-18T11:31:38.488Z,86.23
2022-11-18T11:34:16.631Z,85.21
2022-11-18T11:37:04.804Z,85.03
2022-11-18T11:39:37.620Z,82.54
2022-11-18T11:42:07.493Z,82.93
2022-11-18T11:44:37.575Z,82.01
2022-11-18T11:47:25.970Z,81.48
2022-11-18T11:49:54.389Z,81.87
2022-11-18T11:52:41.416Z,82.59
2022-11-18T11:55:27.515Z,83.85
2022-11-18T11:58:15.708Z,85.90
2022-11-18T12:00:47.326Z,85.89
2022-11-18T12:03:34.980Z,84.52
2022-11-18T12:06:08.321Z,84.74
2022-11-18T12:08:35.528Z,84.12
2022-11-18T12:11:12.231Z,83.85
2022-11-18T12:14:02.236Z,82.49
2022-11-18T12:16:49.788Z,83.39
2022-11-18T12:19:18.586Z,81.63
2022-11-18T12:21:48.490Z,81.04
2022-11-18T12:24:21.096Z,81.41
2022-11-18T12:26:48.776Z,80.87
2022-11-18T12:29:18.941Z,80.05
2022-11-18T12:32:13.746Z,79.71
2022-11-18T12:34:46.845Z,82.75
2022-11-18T12:37:29.865Z,82.78
2022-11-18T12:40:10.209Z,81.52
2022-11-18T12:43:09.004Z,80.96
2022-11-18T12:45:45.330Z,79.77
2022-11-18T12:48:27.832Z,80.41
2022-11-18T12:50:56.131Z,81.85
2022-11-18T12:53:35.284Z,81.02
2022-11-18T12:56:11.418Z,80.10
2022-11-18T12:58:38.395Z,79.47
2022-11-18T13:01:08.649Z,78.36
2022-11-18T13:03:39.449Z,79.94
2022-11-18T13:06:11.932Z,78.03
2022-11-18T13:08:40.610Z,78.28
2022-11-18T13:12:26.183Z,77.96
2022-11-18T13:14:52.669Z,76.96
2022-11-18T13:17:53.413Z,75.26
2022-11-18T13:20:36.151Z,77.83
2022-11-18T13:23:35.213Z,78.28
2022-11-18T13:26:06.319Z,76.99
2022-11-18T13:28:33.134Z,75.53
2022-11-18T13:30:59.972Z,75.56
2022-11-18T13:33:27.087Z,75.04
2022-11-18T13:35:54.100Z,75.63
2022-11-18T13:38:28.340Z,76.53
2022-11-18T13:41:09.332Z,76.45
2022-11-18T13:43:36.245Z,75.39
2022-11-18T13:46:17.106Z,75.98
2022-11-18T13:48:49.189Z,74.77
2022-11-18T13:51:16.224Z,74.07
2022-11-18T13:53:45.054Z,73.30
2022-11-18T13:56:21.265Z,73.17
2022-11-18T14:01:38.294Z,76.10
2022-11-18T14:04:09.723Z,78.37
2022-11-18T14:06:48.153Z,75.09
2022-11-18T14:09:25.626Z,74.60
2022-11-18T14:14:48.941Z,75.78
2022-11-18T14:17:18.975Z,74.01
2022-11-18T14:19:47.772Z,76.72
2022-11-18T14:22:21.974Z,77.64
2022-11-18T14:24:58.064Z,74.57
2022-11-18T14:27:44.667Z,73.58
2022-11-18T14:30:31.670Z,73.93
2022-11-18T14:33:16.154Z,73.00
2022-11-18T14:36:07.525Z,72.22
2022-11-18T14:38:47.659Z,72.04
2022-11-18T14:41:44.662Z,72.77
2022-11-18T14:44:13.928Z,72.96
2022-11-18T14:46:47.622Z,71.57
2022-11-18T14:49:19.341Z,71.14
2022-11-18T14:51:49.015Z,71.14
2022-11-18T14:54:23.871Z,70.07
2022-11-18T14:56:53.867Z,69.49
2022-11-18T14:59:37.821Z,69.69
2022-11-18T15:02:04.863Z,69.41
2022-11-18T15:04:32.254Z,68.92
2022-11-18T15:06:59.115Z,69.03
2022-11-18T15:09:28.772Z,69.22
2022-11-18T15:11:55.570Z,68.93
2022-11-18T15:14:22.428Z,69.98
2022-11-18T15:16:49.565Z,69.09
2022-11-18T15:19:16.717Z,69.02
2022-11-18T15:21:44.341Z,68.79
2022-11-18T15:24:11.071Z,68.97
2022-11-18T15:26:42.830Z,69.50
2022-11-18T15:29:16.242Z,69.51
2022-11-18T15:31:43.051Z,69.13
2022-11-18T15:34:10.409Z,69.27
2022-11-18T15:36:37.231Z,69.10
2022-11-18T15:39:04.107Z,68.94
2022-11-18T15:41:31.737Z,69.03
2022-11-18T15:44:00.006Z,69.57
2022-11-18T15:46:28.204Z,71.63
2022-11-18T15:48:56.014Z,70.96
2022-11-18T15:51:23.340Z,71.78
2022-11-18T15:53:50.259Z,72.15
2022-11-18T15:56:27.073Z,71.63
2022-11-18T15:59:07.076Z,71.17
2022-11-18T16:01:35.476Z,71.02
2022-11-18T16:04:02.702Z,72.09
2022-11-18T16:06:29.726Z,71.38
2022-11-18T16:08:59.977Z,71.34
2022-11-18T16:11:45.871Z,70.88
2022-11-18T16:14:13.444Z,71.71
2022-11-18T16:16:40.896Z,71.10
2022-11-18T16:19:08.702Z,70.74
2022-11-18T16:21:36.576Z,70.71
2022-11-18T16:24:04.911Z,71.68
2022-11-18T16:26:32.236Z,71.40
2022-11-18T16:28:59.554Z,71.18
2022-11-18T16:31:42.236Z,70.82
2022-11-18T16:34:09.982Z,71.27
2022-11-18T16:36:37.548Z,71.59
2022-11-18T16:39:05.644Z,71.54
2022-11-18T16:41:32.469Z,71.54
2022-11-18T16:44:00.044Z,71.32
2022-11-18T16:46:27.120Z,71.43
2022-11-18T16:48:53.874Z,71.74
2022-11-18T16:51:21.759Z,71.87
2022-11-18T16:53:55.533Z,71.82
2022-11-18T16:56:23.229Z,71.74
2022-11-18T16:58:49.955Z,72.53
2022-11-18T17:01:21.022Z,72.89
2022-11-18T17:03:50.831Z,72.65
2022-11-18T17:06:17.633Z,72.84
2022-11-18T17:08:44.427Z,73.20
2022-11-18T17:11:11.707Z,73.64
2022-11-18T17:13:38.693Z,73.59
2022-11-18T17:16:06.825Z,73.26
2022-11-18T17:18:33.774Z,73.73
2022-11-18T17:21:07.903Z,73.02
2022-11-18T17:23:35.061Z,72.28
2022-11-18T17:26:02.319Z,71.98
2022-11-18T17:28:32.833Z,72.17
2022-11-18T17:31:04.677Z,72.04
2022-11-18T17:33:31.411Z,72.15
2022-11-18T17:36:01.458Z,73.30
2022-11-18T17:38:29.078Z,73.04
2022-11-18T17:40:56.622Z,72.43
2022-11-18T17:43:24.246Z,72.97
2022-11-18T17:45:51.915Z,72.80
2022-11-18T17:48:19.203Z,72.69
2022-11-18T17:50:46.223Z,73.32
2022-11-18T17:53:13.143Z,72.58
2022-11-18T17:55:40.236Z,73.16
2022-11-18T17:58:07.403Z,73.16
2022-11-18T18:00:34.926Z,73.11
2022-11-18T18:03:02.230Z,73.90
2022-11-18T18:05:28.957Z,72.64
2022-11-18T18:07:56.425Z,73.68
2022-11-18T18:10:23.943Z,73.80
2022-11-18T18:13:09.673Z,73.36
2022-11-18T18:15:36.536Z,72.59
2022-11-18T18:18:03.351Z,73.52
2022-11-18T18:20:30.344Z,72.80
2022-11-18T18:22:57.324Z,73.38
2022-11-18T18:25:24.021Z,73.39
2022-11-18T18:27:50.771Z,74.46
2022-11-18T18:30:17.704Z,74.26
2022-11-18T18:32:49.473Z,73.59
2022-11-18T18:35:18.958Z,73.38
2022-11-18T18:37:45.670Z,75.89
2022-11-18T18:40:13.986Z,74.37
2022-11-18T18:42:40.820Z,75.07
2022-11-18T18:45:26.597Z,74.80
2022-11-18T18:47:53.351Z,74.15
2022-11-18T18:50:22.789Z,74.40
2022-11-18T18:52:53.522Z,75.60
2022-11-18T18:55:20.278Z,74.15
2022-11-18T18:57:47.062Z,76.28
2022-11-18T19:00:14.195Z,76.47
2022-11-18T19:02:40.989Z,75.77
2022-11-18T19:05:08.041Z,75.34
2022-11-18T19:07:34.900Z,76.10
2022-11-18T19:10:02.279Z,74.51
2022-11-18T19:12:43.987Z,74.56
2022-11-18T19:15:11.897Z,74.92
2022-11-18T19:17:39.218Z,77.51
2022-11-18T19:20:25.375Z,77.71
2022-11-18T19:22:52.174Z,76.18
2022-11-18T19:25:19.032Z,76.11
2022-11-18T19:27:45.811Z,75.32
2022-11-18T19:30:12.879Z,76.37
2022-11-18T19:32:40.249Z,77.71
2022-11-18T19:35:07.449Z,75.96
2022-11-18T19:37:34.570Z,78.17
2022-11-18T19:40:08.867Z,78.05
2022-11-18T19:42:37.974Z,78.16
2022-11-18T19:45:05.678Z,77.68
2022-11-18T19:47:32.689Z,77.17
2022-11-18T19:49:59.503Z,76.36
2022-11-18T19:52:26.460Z,76.16
2022-11-18T19:54:53.283Z,77.50
2022-11-18T19:57:20.123Z,76.79
2022-11-18T19:59:46.938Z,75.98
2022-11-18T20:02:13.795Z,76.85
2022-11-18T20:04:40.647Z,76.58
2022-11-18T20:07:07.374Z,78.61
2022-11-18T20:09:34.239Z,78.51
2022-11-18T20:12:01.108Z,77.57
2022-11-18T20:14:27.958Z,76.40
2022-11-18T20:16:54.774Z,77.14
2022-11-18T20:19:21.631Z,76.16
2022-11-18T20:21:49.672Z,77.07
2022-11-18T20:24:17.614Z,76.68
2022-11-18T20:26:44.918Z,76.09
2022-11-18T20:29:11.873Z,75.75
2022-11-18T20:31:38.807Z,74.52
2022-11-18T20:34:05.758Z,74.98
2022-11-18T20:36:34.690Z,75.38
2022-11-18T20:39:03.770Z,75.07
2022-11-18T20:41:31.986Z,76.39
2022-11-18T20:43:59.514Z,76.98
2022-11-18T20:46:26.616Z,77.72
2022-11-18T20:48:53.906Z,79.07
2022-11-18T20:51:23.863Z,76.76
2022-11-18T20:53:51.370Z,78.89
2022-11-18T20:56:19.292Z,79.07
2022-11-18T20:58:46.107Z,79.54
2022-11-18T21:01:17.143Z,80.10
2022-11-18T21:03:48.173Z,77.01
2022-11-18T21:06:14.985Z,77.72
2022-11-18T21:08:42.723Z,77.75
2022-11-18T21:11:10.828Z,77.84
2022-11-18T21:13:56.676Z,80.38
2022-11-18T21:16:23.744Z,80.41
2022-11-18T21:18:50.492Z,79.86
2022-11-18T21:21:35.995Z,78.07
2022-11-18T21:24:03.800Z,76.37
2022-11-18T21:26:31.884Z,76.80
2022-11-18T21:29:00.134Z,77.59
2022-11-18T21:31:27.807Z,78.96
2022-11-18T21:33:55.043Z,78.92
2022-11-18T21:36:22.723Z,79.91
2022-11-18T21:38:49.714Z,81.13
2022-11-18T21:41:17.172Z,82.48
2022-11-18T21:44:04.485Z,82.04
2022-11-18T21:46:31.686Z,82.57
2022-11-18T21:49:00.413Z,79.95
2022-11-18T21:51:27.724Z,80.28
2022-11-18T21:53:54.692Z,78.17
2022-11-18T21:56:22.739Z,77.61
2022-11-18T21:58:49.840Z,76.88
2022-11-18T22:01:24.068Z,78.08
2022-11-18T22:03:55.300Z,76.29
2022-11-18T22:06:23.190Z,77.13
2022-11-18T22:08:50.779Z,76.76
2022-11-18T22:11:17.759Z,76.64
2022-11-18T22:13:44.499Z,76.10
2022-11-18T22:16:15.666Z,79.41
2022-11-18T22:18:43.903Z,76.79
2022-11-18T22:21:12.225Z,78.27
2022-11-18T22:23:39.292Z,75.20
2022-11-18T22:26:08.973Z,75.24
2022-11-18T22:28:36.223Z,75.37
2022-11-18T22:31:07.500Z,75.12
2022-11-18T22:33:34.380Z,74.98
2022-11-18T22:36:02.316Z,75.33
2022-11-18T22:38:29.444Z,74.15
2022-11-18T22:40:59.995Z,76.26
2022-11-18T22:43:26.758Z,78.21
2022-11-18T22:46:03.767Z,78.54
2022-11-18T22:48:30.823Z,79.80
2022-11-18T22:51:01.822Z,79.19
2022-11-18T22:53:29.441Z,79.67
2022-11-18T22:56:02.368Z,80.38
2022-11-18T22:58:29.541Z,78.77
2022-11-18T23:00:59.713Z,77.07
2022-11-18T23:03:26.558Z,78.82
2022-11-18T23:05:53.347Z,77.54
2022-11-18T23:08:20.217Z,76.05
2022-11-18T23:10:47.027Z,76.02
2022-11-18T23:13:32.204Z,74.66
2022-11-18T23:15:59.359Z,73.86
2022-11-18T23:18:26.952Z,73.60
2022-11-18T23:20:59.065Z,73.65
2022-11-18T23:23:25.876Z,74.18
2022-11-18T23:25:52.843Z,72.55
2022-11-18T23:28:19.988Z,72.42
2022-11-18T23:30:46.779Z,71.26
2022-11-18T23:33:13.653Z,71.70
2022-11-18T23:35:40.397Z,70.94
2022-11-18T23:38:07.204Z,71.77
2022-11-18T23:40:33.963Z,72.36
2022-11-18T23:43:00.806Z,72.26
2022-11-18T23:45:27.634Z,74.05
2022-11-18T23:47:54.389Z,73.65
2022-11-18T23:50:21.165Z,75.37
2022-11-18T23:52:47.918Z,72.66
2022-11-18T23:55:14.750Z,75.63
2022-11-18T23:57:41.571Z,75.54
